createdAt,value
2023-02-02T00:00:38.331Z,98814.04
2023-02-02T00:06:01.173Z,98809.89
2023-02-02T00:11:04.431Z,98804.61
2023-02-02T00:16:26.025Z,98799.33
2023-02-02T00:21:29.188Z,98797.20
2023-02-02T00:26:32.141Z,98797.80
2023-02-02T00:31:35.025Z,98798.17
2023-02-02T00:36:37.899Z,98798.46
2023-02-02T00:41:40.575Z,98796.30
2023-02-02T00:46:43.328Z,98789.53
2023-02-02T00:51:45.982Z,98789.29
2023-02-02T00:56:48.695Z,98793.46
2023-02-02T01:01:51.507Z,98795.38
2023-02-02T01:06:54.260Z,98795.32
2023-02-02T01:11:57.421Z,98799.82
2023-02-02T01:17:00.139Z,98794.95
2023-02-02T01:22:03.637Z,98795.06
2023-02-02T01:27:06.607Z,98792.94
2023-02-02T01:32:09.321Z,98796.86
2023-02-02T01:37:11.987Z,98790.88
2023-02-02T01:42:23.349Z,98793.88
2023-02-02T01:47:29.908Z,98792.81
2023-02-02T01:52:34.733Z,98794.40
2023-02-02T01:57:45.425Z,98792.41
2023-02-02T02:02:49.376Z,98789.80
2023-02-02T02:07:56.473Z,98781.83
2023-02-02T02:12:59.355Z,98787.17
2023-02-02T02:18:20.419Z,98781.73
2023-02-02T02:24:09.141Z,98784.50
2023-02-02T02:29:53.563Z,98779.70
2023-02-02T02:35:17.561Z,98771.95
2023-02-02T02:40:35.312Z,98772.49
2023-02-02T02:45:39.247Z,98778.20
2023-02-02T02:50:42.144Z,98776.95
2023-02-02T02:56:09.381Z,98769.48
2023-02-02T03:01:21.972Z,98769.90
2023-02-02T03:06:47.869Z,98767.40
2023-02-02T03:11:50.618Z,98766.89
2023-02-02T03:16:53.804Z,98768.67
2023-02-02T03:21:56.559Z,98772.08
2023-02-02T03:26:59.263Z,98772.98
2023-02-02T03:32:02.015Z,98773.20
2023-02-02T03:37:04.720Z,98774.92
2023-02-02T03:42:07.405Z,98777.11
2023-02-02T03:47:10.060Z,98776.56
2023-02-02T03:52:12.800Z,98770.65
2023-02-02T03:57:15.505Z,98772.11
2023-02-02T04:02:18.181Z,98769.05
2023-02-02T04:07:20.997Z,98776.22
2023-02-02T04:12:23.781Z,98771.55
2023-02-02T04:17:26.495Z,98777.29
2023-02-02T04:22:29.196Z,98772.60
2023-02-02T04:27:34.105Z,98783.43
2023-02-02T04:32:36.916Z,98779.66
2023-02-02T04:37:39.591Z,98784.87
2023-02-02T04:42:42.245Z,98790.21
2023-02-02T04:47:44.913Z,98789.89
2023-02-02T04:52:47.641Z,98786.95
2023-02-02T04:57:50.753Z,98797.98
2023-02-02T05:02:53.464Z,98794.71
2023-02-02T05:07:56.166Z,98797.29
2023-02-02T05:12:58.874Z,98799.54
2023-02-02T05:18:01.759Z,98790.23
2023-02-02T05:23:04.467Z,98797.23
2023-02-02T05:28:07.145Z,98804.83
2023-02-02T05:33:10.460Z,98807.58
2023-02-02T05:38:13.681Z,98812.17
2023-02-02T05:43:16.399Z,98818.73
2023-02-02T05:48:19.453Z,98819.71
2023-02-02T05:53:22.156Z,98811.98
2023-02-02T05:58:25.943Z,98821.46
2023-02-02T06:03:28.804Z,98834.34
2023-02-02T06:08:31.616Z,98840.98
2023-02-02T06:13:35.535Z,98845.39
2023-02-02T06:18:38.306Z,98847.77
2023-02-02T06:23:46.141Z,98857.88
2023-02-02T06:28:51.386Z,98865.14
2023-02-02T06:33:57.085Z,98865.21
2023-02-02T06:39:00.113Z,98873.19
2023-02-02T06:44:03.373Z,98875.66
2023-02-02T06:49:06.021Z,98881.38
2023-02-02T06:54:08.681Z,98883.57
2023-02-02T06:59:11.354Z,98887.29
2023-02-02T07:04:14.095Z,98893.98
2023-02-02T07:09:16.898Z,98900.88
2023-02-02T07:14:19.611Z,98908.58
2023-02-02T07:19:22.312Z,98919.80
2023-02-02T07:24:25.028Z,98926.21
2023-02-02T07:29:27.769Z,98931.73
2023-02-02T07:34:30.434Z,98932.39
2023-02-02T07:39:33.096Z,98945.95
2023-02-02T07:44:35.792Z,98948.05
2023-02-02T07:49:38.491Z,98956.33
2023-02-02T07:54:41.598Z,98965.52
2023-02-02T07:59:44.293Z,98971.83
2023-02-02T08:04:47.715Z,98976.80
2023-02-02T08:09:51.841Z,98980.80
2023-02-02T08:14:54.546Z,98990.33
2023-02-02T08:19:57.356Z,98996.40
2023-02-02T08:25:00.038Z,99000.86
2023-02-02T08:30:02.759Z,99012.08
2023-02-02T08:35:06.179Z,99014.34
2023-02-02T08:40:10.116Z,99027.36
2023-02-02T08:46:03.132Z,99033.50
2023-02-02T08:50:36.025Z,99044.21
2023-02-02T08:55:38.711Z,99063.77
2023-02-02T09:00:41.617Z,99073.10
2023-02-02T09:05:44.573Z,99078.86
2023-02-02T09:10:47.261Z,99092.57
2023-02-02T09:15:49.963Z,99104.34
2023-02-02T09:20:52.772Z,99113.14
2023-02-02T09:25:55.575Z,99126.29
2023-02-02T09:31:01.564Z,99144.98
2023-02-02T09:36:12.138Z,99161.70
2023-02-02T09:41:39.741Z,99174.45
2023-02-02T09:47:04.640Z,99187.25
2023-02-02T09:52:14.453Z,99202.48
2023-02-02T09:57:22.592Z,99209.61
2023-02-02T10:02:33.450Z,99213.19
2023-02-02T10:07:41.459Z,99219.23
2023-02-02T10:12:56.242Z,99230.48
2023-02-02T10:18:08.859Z,99243.07
2023-02-02T10:23:15.651Z,99250.20
2023-02-02T10:28:20.514Z,99248.71
2023-02-02T10:34:02.527Z,99256.58
2023-02-02T10:39:36.059Z,99266.98
2023-02-02T10:44:51.134Z,99280.27
2023-02-02T10:50:19.273Z,99285.73
2023-02-02T10:55:32.987Z,99297.88
2023-02-02T11:00:52.829Z,99310.22
2023-02-02T11:06:18.578Z,99323.77
2023-02-02T11:11:25.083Z,99324.63
2023-02-02T11:16:42.227Z,99335.27
2023-02-02T11:21:48.774Z,99334.95
2023-02-02T11:27:17.773Z,99342.52
2023-02-02T11:32:33.111Z,99348.65
2023-02-02T11:37:52.237Z,99360.78
2023-02-02T11:43:01.414Z,99375.48
2023-02-02T11:48:22.417Z,99392.11
2023-02-02T11:53:35.972Z,99402.30
2023-02-02T11:58:56.617Z,99413.73
2023-02-02T12:04:02.185Z,99427.13
2023-02-02T12:09:14.672Z,99431.34
2023-02-02T12:14:37.099Z,99445.09
2023-02-02T12:20:06.342Z,99448.06
2023-02-02T12:25:15.054Z,99456.13
2023-02-02T12:30:41.512Z,99459.73
2023-02-02T12:35:52.431Z,99463.11
2023-02-02T12:41:20.945Z,99477.66
2023-02-02T12:46:42.165Z,99483.32
2023-02-02T12:51:57.490Z,99495.45
2023-02-02T12:57:24.221Z,99504.55
2023-02-02T13:02:57.979Z,99505.86
2023-02-02T13:08:11.989Z,99517.52
2023-02-02T13:13:14.641Z,99521.24
2023-02-02T13:18:23.578Z,99533.96
2023-02-02T13:23:35.882Z,99557.67
2023-02-02T13:28:45.453Z,99575.46
2023-02-02T13:33:57.283Z,99595.39
2023-02-02T13:39:03.452Z,99608.13
2023-02-02T13:44:18.047Z,99611.88
2023-02-02T13:49:29.025Z,99620.27
2023-02-02T13:55:04.899Z,99634.30
2023-02-02T14:00:16.716Z,99638.91
2023-02-02T14:05:41.527Z,99658.31
2023-02-02T14:10:53.369Z,99673.91
2023-02-02T14:15:58.075Z,99679.19
2023-02-02T14:21:00.819Z,99680.48
2023-02-02T14:26:09.425Z,99689.08
2023-02-02T14:31:29.740Z,99703.23
2023-02-02T14:36:32.855Z,99726.60
2023-02-02T14:42:16.326Z,99739.57
2023-02-02T14:47:46.972Z,99748.84
2023-02-02T14:52:59.957Z,99764.67
2023-02-02T14:58:06.179Z,99781.77
2023-02-02T15:03:37.066Z,99792.21
2023-02-02T15:08:39.871Z,99811.32
2023-02-02T15:13:48.591Z,99826.19
2023-02-02T15:19:04.382Z,99834.93
2023-02-02T15:24:18.798Z,99859.65
2023-02-02T15:29:38.524Z,99868.87
2023-02-02T15:34:45.469Z,99887.86
2023-02-02T15:39:52.698Z,99899.90
2023-02-02T15:44:55.399Z,99908.86
2023-02-02T15:49:59.613Z,99926.53
2023-02-02T15:55:02.738Z,99934.66
2023-02-02T16:00:44.327Z,99951.59
2023-02-02T16:05:57.003Z,99969.77
2023-02-02T16:11:14.921Z,99982.98
2023-02-02T16:16:26.780Z,100006.48
2023-02-02T16:21:31.074Z,100023.27
2023-02-02T16:26:35.568Z,100022.09
2023-02-02T16:31:38.542Z,100042.44
2023-02-02T16:36:41.606Z,100058.27
2023-02-02T16:41:47.472Z,100076.14
2023-02-02T16:46:50.624Z,100080.78
2023-02-02T16:52:18.345Z,100101.02
2023-02-02T16:57:34.365Z,100121.60
2023-02-02T17:02:40.811Z,100131.06
2023-02-02T17:07:51.549Z,100141.80
2023-02-02T17:12:54.582Z,100152.65
2023-02-02T17:17:57.895Z,100161.98
2023-02-02T17:23:09.908Z,100170.55
2023-02-02T17:28:16.790Z,100183.83
2023-02-02T17:33:19.564Z,100198.21
2023-02-02T17:38:24.142Z,100211.88
2023-02-02T17:43:27.159Z,100216.23
2023-02-02T17:48:29.850Z,100223.55
2023-02-02T17:53:33.571Z,100232.77
2023-02-02T17:58:36.388Z,100243.02
2023-02-02T18:03:41.553Z,100247.69
2023-02-02T18:08:45.618Z,100253.36
2023-02-02T18:13:48.410Z,100257.19
2023-02-02T18:18:51.119Z,100270.11
2023-02-02T18:23:53.894Z,100283.52
2023-02-02T18:28:56.597Z,100285.63
2023-02-02T18:33:59.276Z,100300.73
2023-02-02T18:39:01.992Z,100312.23
2023-02-02T18:44:04.770Z,100326.39
2023-02-02T18:49:07.443Z,100329.42
2023-02-02T18:54:12.904Z,100339.55
2023-02-02T18:59:15.645Z,100351.08
2023-02-02T19:04:18.374Z,100361.32
2023-02-02T19:09:22.463Z,100374.69
2023-02-02T19:14:34.522Z,100375.82
2023-02-02T19:19:39.481Z,100384.70
2023-02-02T19:24:43.162Z,100400.50
2023-02-02T19:29:47.597Z,100405.95
2023-02-02T19:34:55.381Z,100411.27
2023-02-02T19:40:08.240Z,100420.55
2023-02-02T19:45:26.977Z,100424.86
2023-02-02T19:50:38.849Z,100430.02
2023-02-02T19:55:43.998Z,100437.05
2023-02-02T20:00:49.146Z,100439.48
2023-02-02T20:05:53.693Z,100447.02
2023-02-02T20:11:02.700Z,100454.41
2023-02-02T20:16:06.627Z,100458.20
2023-02-02T20:21:38.863Z,100458.91
2023-02-02T20:26:41.562Z,100459.03
2023-02-02T20:31:46.093Z,100467.73
2023-02-02T20:36:49.641Z,100477.52
2023-02-02T20:41:54.837Z,100484.40
2023-02-02T20:46:58.591Z,100482.41
2023-02-02T20:52:03.744Z,100491.44
2023-02-02T20:57:06.860Z,100492.09
2023-02-02T21:02:18.943Z,100500.92
2023-02-02T21:07:22.305Z,100506.02
2023-02-02T21:12:25.781Z,100502.50
2023-02-02T21:17:28.515Z,100512.11
2023-02-02T21:22:31.322Z,100528.91
2023-02-02T21:27:34.738Z,100534.55
2023-02-02T21:32:37.637Z,100539.38
2023-02-02T21:37:40.597Z,100546.84
2023-02-02T21:42:48.721Z,100549.64
2023-02-02T21:48:22.599Z,100548.52
2023-02-02T21:53:27.524Z,100558.54
2023-02-02T21:58:38.412Z,100567.48
2023-02-02T22:03:46.802Z,100584.96
2023-02-02T22:08:50.874Z,100598.33
2023-02-02T22:13:54.111Z,100605.57
2023-02-02T22:18:56.820Z,100611.44
2023-02-02T22:24:00.483Z,100616.77
2023-02-02T22:29:12.409Z,100631.46
2023-02-02T22:34:15.158Z,100640.91
2023-02-02T22:39:17.836Z,100644.20
2023-02-02T22:44:20.758Z,100648.36
2023-02-02T22:49:23.457Z,100652.67
2023-02-02T22:54:26.185Z,100653.39
2023-02-02T22:59:28.879Z,100655.09
2023-02-02T23:04:31.656Z,100651.53
2023-02-02T23:09:34.347Z,100652.06
2023-02-02T23:14:37.072Z,100653.12
2023-02-02T23:19:39.899Z,100651.45
2023-02-02T23:24:42.864Z,100660.21
2023-02-02T23:29:45.565Z,100663.84
2023-02-02T23:34:48.243Z,100664.70
2023-02-02T23:39:50.914Z,100660.43
2023-02-02T23:44:53.696Z,100652.25
2023-02-02T23:49:56.445Z,100662.50
2023-02-02T23:55:01.404Z,100665.42
